sensor_id;sensor_type;location;lat;lon;timestamp;P1;durP1;ratioP1;P2;durP2;ratioP2
28070;SDS011;15383;48.408;9.968;2024-02-21T00:01:39;9.88;;;3.63;;
28070;SDS011;15383;48.408;9.968;2024-02-21T00:04:05;9.75;;;3.22;;
28070;SDS011;15383;48.408;9.968;2024-02-21T00:06:31;8.85;;;4.10;;
28070;SDS011;15383;48.408;9.968;2024-02-21T00:08:57;13.57;;;3.88;;
28070;SDS011;15383;48.408;9.968;2024-02-21T00:11:22;10.48;;;3.75;;
28070;SDS011;15383;48.408;9.968;2024-02-21T00:13:48;12.13;;;4.15;;
28070;SDS011;15383;48.408;9.968;2024-02-21T00:16:13;10.10;;;4.10;;
28070;SDS011;15383;48.408;9.968;2024-02-21T00:18:41;8.00;;;4.10;;
28070;SDS011;15383;48.408;9.968;2024-02-21T00:21:06;5.90;;;3.58;;
28070;SDS011;15383;48.408;9.968;2024-02-21T00:23:32;6.68;;;3.63;;
28070;SDS011;15383;48.408;9.968;2024-02-21T00:25:58;7.45;;;3.30;;
28070;SDS011;15383;48.408;9.968;2024-02-21T00:28:23;7.88;;;3.72;;
28070;SDS011;15383;48.408;9.968;2024-02-21T00:30:49;9.68;;;3.63;;
28070;SDS011;15383;48.408;9.968;2024-02-21T00:33:16;8.90;;;4.38;;
28070;SDS011;15383;48.408;9.968;2024-02-21T00:35:42;9.73;;;4.05;;
28070;SDS011;15383;48.408;9.968;2024-02-21T00:38:08;8.40;;;4.05;;
28070;SDS011;15383;48.408;9.968;2024-02-21T00:40:33;7.05;;;3.72;;
28070;SDS011;15383;48.408;9.968;2024-02-21T00:43:00;7.47;;;4.03;;
28070;SDS011;15383;48.408;9.968;2024-02-21T00:45:25;11.57;;;3.75;;
28070;SDS011;15383;48.408;9.968;2024-02-21T00:47:51;6.63;;;3.28;;
28070;SDS011;15383;48.408;9.968;2024-02-21T00:50:17;9.90;;;3.75;;
28070;SDS011;15383;48.408;9.968;2024-02-21T00:52:43;9.07;;;3.50;;
28070;SDS011;15383;48.408;9.968;2024-02-21T00:55:09;10.45;;;3.60;;
28070;SDS011;15383;48.408;9.968;2024-02-21T00:57:35;10.13;;;3.40;;
28070;SDS011;15383;48.408;9.968;2024-02-21T01:00:01;7.18;;;3.38;;
28070;SDS011;15383;48.408;9.968;2024-02-21T01:02:27;5.78;;;3.22;;
28070;SDS011;15383;48.408;9.968;2024-02-21T01:04:53;11.10;;;3.08;;
28070;SDS011;15383;48.408;9.968;2024-02-21T01:07:19;7.20;;;3.17;;
28070;SDS011;15383;48.408;9.968;2024-02-21T01:09:44;9.50;;;3.42;;
28070;SDS011;15383;48.408;9.968;2024-02-21T01:12:10;6.22;;;3.10;;
28070;SDS011;15383;48.408;9.968;2024-02-21T01:14:35;9.45;;;3.15;;
28070;SDS011;15383;48.408;9.968;2024-02-21T01:17:01;10.55;;;3.05;;
28070;SDS011;15383;48.408;9.968;2024-02-21T01:19:26;6.10;;;3.05;;
28070;SDS011;15383;48.408;9.968;2024-02-21T01:21:52;7.38;;;2.97;;
28070;SDS011;15383;48.408;9.968;2024-02-21T01:24:18;5.75;;;3.58;;
28070;SDS011;15383;48.408;9.968;2024-02-21T01:26:43;5.07;;;3.00;;
28070;SDS011;15383;48.408;9.968;2024-02-21T01:29:09;7.22;;;3.28;;
28070;SDS011;15383;48.408;9.968;2024-02-21T01:31:34;7.82;;;2.92;;
28070;SDS011;15383;48.408;9.968;2024-02-21T01:34:00;7.50;;;2.53;;
28070;SDS011;15383;48.408;9.968;2024-02-21T01:36:25;5.45;;;2.78;;
28070;SDS011;15383;48.408;9.968;2024-02-21T01:38:51;4.93;;;3.05;;
28070;SDS011;15383;48.408;9.968;2024-02-21T01:41:16;4.68;;;3.03;;
28070;SDS011;15383;48.408;9.968;2024-02-21T01:43:42;5.00;;;2.90;;
28070;SDS011;15383;48.408;9.968;2024-02-21T01:46:08;7.32;;;2.80;;
28070;SDS011;15383;48.408;9.968;2024-02-21T01:48:33;8.05;;;2.67;;
28070;SDS011;15383;48.408;9.968;2024-02-21T01:51:00;9.23;;;2.65;;
28070;SDS011;15383;48.408;9.968;2024-02-21T01:53:30;8.13;;;2.47;;
28070;SDS011;15383;48.408;9.968;2024-02-21T01:55:57;4.90;;;2.58;;
28070;SDS011;15383;48.408;9.968;2024-02-21T01:58:23;12.18;;;3.45;;
28070;SDS011;15383;48.408;9.968;2024-02-21T02:00:49;6.55;;;3.20;;
28070;SDS011;15383;48.408;9.968;2024-02-21T02:03:15;6.47;;;2.85;;
28070;SDS011;15383;48.408;9.968;2024-02-21T02:05:48;5.57;;;2.65;;
28070;SDS011;15383;48.408;9.968;2024-02-21T02:10:44;7.93;;;2.87;;
28070;SDS011;15383;48.408;9.968;2024-02-21T02:13:10;3.95;;;2.42;;
28070;SDS011;15383;48.408;9.968;2024-02-21T02:15:40;6.35;;;2.40;;
28070;SDS011;15383;48.408;9.968;2024-02-21T02:18:07;8.13;;;2.72;;
28070;SDS011;15383;48.408;9.968;2024-02-21T02:20:33;7.60;;;3.63;;
28070;SDS011;15383;48.408;9.968;2024-02-21T02:23:00;9.20;;;3.08;;
28070;SDS011;15383;48.408;9.968;2024-02-21T02:25:35;7.78;;;2.55;;
28070;SDS011;15383;48.408;9.968;2024-02-21T02:28:01;5.03;;;2.95;;
28070;SDS011;15383;48.408;9.968;2024-02-21T02:30:27;7.05;;;2.50;;
28070;SDS011;15383;48.408;9.968;2024-02-21T02:32:53;7.13;;;2.67;;
28070;SDS011;15383;48.408;9.968;2024-02-21T02:35:19;4.45;;;2.80;;
28070;SDS011;15383;48.408;9.968;2024-02-21T02:37:48;4.70;;;2.88;;
28070;SDS011;15383;48.408;9.968;2024-02-21T02:40:14;7.15;;;2.45;;
28070;SDS011;15383;48.408;9.968;2024-02-21T02:42:40;7.35;;;2.88;;
28070;SDS011;15383;48.408;9.968;2024-02-21T02:45:06;8.32;;;2.47;;
28070;SDS011;15383;48.408;9.968;2024-02-21T02:47:32;4.75;;;2.70;;
28070;SDS011;15383;48.408;9.968;2024-02-21T02:49:59;9.90;;;2.20;;
28070;SDS011;15383;48.408;9.968;2024-02-21T02:52:25;9.80;;;2.45;;
28070;SDS011;15383;48.408;9.968;2024-02-21T02:54:50;6.80;;;2.72;;
28070;SDS011;15383;48.408;9.968;2024-02-21T02:57:17;7.50;;;2.47;;
28070;SDS011;15383;48.408;9.968;2024-02-21T02:59:49;6.28;;;2.55;;
28070;SDS011;15383;48.408;9.968;2024-02-21T03:02:16;5.75;;;3.05;;
28070;SDS011;15383;48.408;9.968;2024-02-21T03:04:42;4.05;;;2.38;;
28070;SDS011;15383;48.408;9.968;2024-02-21T03:07:08;5.47;;;2.40;;
28070;SDS011;15383;48.408;9.968;2024-02-21T03:09:36;6.25;;;2.35;;
28070;SDS011;15383;48.408;9.968;2024-02-21T03:12:05;4.35;;;2.50;;
28070;SDS011;15383;48.408;9.968;2024-02-21T03:14:34;6.53;;;3.10;;
28070;SDS011;15383;48.408;9.968;2024-02-21T03:17:00;9.75;;;2.72;;
28070;SDS011;15383;48.408;9.968;2024-02-21T03:19:27;3.78;;;2.10;;
28070;SDS011;15383;48.408;9.968;2024-02-21T03:21:53;3.50;;;2.17;;
28070;SDS011;15383;48.408;9.968;2024-02-21T03:24:18;7.03;;;2.88;;
28070;SDS011;15383;48.408;9.968;2024-02-21T03:26:45;4.05;;;2.28;;
28070;SDS011;15383;48.408;9.968;2024-02-21T03:29:12;7.25;;;2.95;;
28070;SDS011;15383;48.408;9.968;2024-02-21T03:31:39;8.48;;;2.92;;
28070;SDS011;15383;48.408;9.968;2024-02-21T03:34:04;6.30;;;2.70;;
28070;SDS011;15383;48.408;9.968;2024-02-21T03:36:30;7.85;;;2.53;;
28070;SDS011;15383;48.408;9.968;2024-02-21T03:38:56;7.47;;;3.47;;
28070;SDS011;15383;48.408;9.968;2024-02-21T03:41:21;8.10;;;3.60;;
28070;SDS011;15383;48.408;9.968;2024-02-21T03:43:47;6.90;;;2.85;;
28070;SDS011;15383;48.408;9.968;2024-02-21T03:46:12;5.68;;;2.88;;
28070;SDS011;15383;48.408;9.968;2024-02-21T03:48:40;8.30;;;3.20;;
28070;SDS011;15383;48.408;9.968;2024-02-21T03:51:06;5.03;;;3.17;;
28070;SDS011;15383;48.408;9.968;2024-02-21T03:53:31;11.30;;;3.50;;
28070;SDS011;15383;48.408;9.968;2024-02-21T03:55:57;7.40;;;3.08;;
28070;SDS011;15383;48.408;9.968;2024-02-21T04:00:53;8.15;;;3.30;;
28070;SDS011;15383;48.408;9.968;2024-02-21T04:03:19;6.68;;;3.20;;
28070;SDS011;15383;48.408;9.968;2024-02-21T04:05:44;13.43;;;3.35;;
28070;SDS011;15383;48.408;9.968;2024-02-21T04:08:10;10.07;;;3.17;;
28070;SDS011;15383;48.408;9.968;2024-02-21T04:10:36;7.03;;;2.95;;
28070;SDS011;15383;48.408;9.968;2024-02-21T04:13:02;8.75;;;3.22;;
28070;SDS011;15383;48.408;9.968;2024-02-21T04:15:29;5.60;;;2.83;;
28070;SDS011;15383;48.408;9.968;2024-02-21T04:17:54;6.80;;;3.20;;
28070;SDS011;15383;48.408;9.968;2024-02-21T04:20:20;7.63;;;3.20;;
28070;SDS011;15383;48.408;9.968;2024-02-21T04:22:45;7.90;;;3.33;;
28070;SDS011;15383;48.408;9.968;2024-02-21T04:25:11;8.52;;;3.50;;
28070;SDS011;15383;48.408;9.968;2024-02-21T04:27:38;9.27;;;3.35;;
28070;SDS011;15383;48.408;9.968;2024-02-21T04:30:04;7.32;;;2.97;;
28070;SDS011;15383;48.408;9.968;2024-02-21T04:32:31;6.50;;;3.53;;
28070;SDS011;15383;48.408;9.968;2024-02-21T04:34:57;6.93;;;3.45;;
28070;SDS011;15383;48.408;9.968;2024-02-21T04:37:22;7.28;;;3.55;;
28070;SDS011;15383;48.408;9.968;2024-02-21T04:39:48;10.40;;;4.20;;
28070;SDS011;15383;48.408;9.968;2024-02-21T04:42:14;10.20;;;3.95;;
28070;SDS011;15383;48.408;9.968;2024-02-21T04:44:40;7.00;;;4.05;;
28070;SDS011;15383;48.408;9.968;2024-02-21T04:47:06;5.28;;;3.33;;
28070;SDS011;15383;48.408;9.968;2024-02-21T04:49:32;9.85;;;4.03;;
28070;SDS011;15383;48.408;9.968;2024-02-21T04:51:58;12.82;;;4.05;;
28070;SDS011;15383;48.408;9.968;2024-02-21T04:54:24;8.50;;;4.25;;
28070;SDS011;15383;48.408;9.968;2024-02-21T04:56:50;15.65;;;4.43;;
28070;SDS011;15383;48.408;9.968;2024-02-21T04:59:16;18.50;;;4.70;;
28070;SDS011;15383;48.408;9.968;2024-02-21T05:01:42;9.00;;;3.45;;
28070;SDS011;15383;48.408;9.968;2024-02-21T05:04:07;9.23;;;3.65;;
28070;SDS011;15383;48.408;9.968;2024-02-21T05:06:37;12.38;;;4.93;;
28070;SDS011;15383;48.408;9.968;2024-02-21T05:09:03;9.00;;;3.13;;
28070;SDS011;15383;48.408;9.968;2024-02-21T05:11:29;10.30;;;3.58;;
28070;SDS011;15383;48.408;9.968;2024-02-21T05:13:55;19.05;;;4.55;;
28070;SDS011;15383;48.408;9.968;2024-02-21T05:16:21;9.48;;;4.50;;
28070;SDS011;15383;48.408;9.968;2024-02-21T05:18:46;12.63;;;3.80;;
28070;SDS011;15383;48.408;9.968;2024-02-21T05:21:12;12.68;;;3.85;;
28070;SDS011;15383;48.408;9.968;2024-02-21T05:23:38;6.95;;;4.13;;
28070;SDS011;15383;48.408;9.968;2024-02-21T05:26:04;9.63;;;4.20;;
28070;SDS011;15383;48.408;9.968;2024-02-21T05:28:30;10.27;;;4.00;;
28070;SDS011;15383;48.408;9.968;2024-02-21T05:30:56;11.65;;;4.20;;
28070;SDS011;15383;48.408;9.968;2024-02-21T05:33:22;7.35;;;3.22;;
28070;SDS011;15383;48.408;9.968;2024-02-21T05:35:47;10.38;;;3.75;;
28070;SDS011;15383;48.408;9.968;2024-02-21T05:38:16;6.78;;;4.15;;
28070;SDS011;15383;48.408;9.968;2024-02-21T05:40:42;6.22;;;3.40;;
28070;SDS011;15383;48.408;9.968;2024-02-21T05:43:08;5.63;;;3.38;;
28070;SDS011;15383;48.408;9.968;2024-02-21T05:45:33;9.65;;;3.70;;
28070;SDS011;15383;48.408;9.968;2024-02-21T05:47:59;9.65;;;4.10;;
28070;SDS011;15383;48.408;9.968;2024-02-21T05:50:25;7.95;;;3.78;;
28070;SDS011;15383;48.408;9.968;2024-02-21T05:52:54;9.38;;;3.63;;
28070;SDS011;15383;48.408;9.968;2024-02-21T05:55:23;9.57;;;4.03;;
28070;SDS011;15383;48.408;9.968;2024-02-21T05:57:49;10.20;;;3.55;;
28070;SDS011;15383;48.408;9.968;2024-02-21T06:00:15;7.75;;;3.80;;
28070;SDS011;15383;48.408;9.968;2024-02-21T06:02:41;5.43;;;3.83;;
28070;SDS011;15383;48.408;9.968;2024-02-21T06:05:07;8.70;;;3.65;;
28070;SDS011;15383;48.408;9.968;2024-02-21T06:07:34;14.85;;;4.32;;
28070;SDS011;15383;48.408;9.968;2024-02-21T06:10:00;5.88;;;3.67;;
28070;SDS011;15383;48.408;9.968;2024-02-21T06:12:26;10.18;;;3.60;;
28070;SDS011;15383;48.408;9.968;2024-02-21T06:14:52;10.52;;;4.18;;
28070;SDS011;15383;48.408;9.968;2024-02-21T06:17:18;6.75;;;3.47;;
28070;SDS011;15383;48.408;9.968;2024-02-21T06:19:43;9.70;;;4.10;;
28070;SDS011;15383;48.408;9.968;2024-02-21T06:22:09;10.85;;;4.50;;
28070;SDS011;15383;48.408;9.968;2024-02-21T06:24:35;15.00;;;4.95;;
28070;SDS011;15383;48.408;9.968;2024-02-21T06:27:02;6.28;;;3.78;;
28070;SDS011;15383;48.408;9.968;2024-02-21T06:29:33;10.80;;;4.28;;
28070;SDS011;15383;48.408;9.968;2024-02-21T06:31:59;8.73;;;4.28;;
28070;SDS011;15383;48.408;9.968;2024-02-21T06:34:25;11.60;;;3.90;;
28070;SDS011;15383;48.408;9.968;2024-02-21T06:36:51;10.18;;;4.68;;
28070;SDS011;15383;48.408;9.968;2024-02-21T06:39:17;9.30;;;3.85;;
28070;SDS011;15383;48.408;9.968;2024-02-21T06:41:43;9.27;;;3.83;;
28070;SDS011;15383;48.408;9.968;2024-02-21T06:44:08;9.50;;;3.92;;
28070;SDS011;15383;48.408;9.968;2024-02-21T06:46:34;9.23;;;4.55;;
28070;SDS011;15383;48.408;9.968;2024-02-21T06:49:00;10.48;;;3.80;;
28070;SDS011;15383;48.408;9.968;2024-02-21T06:51:28;8.48;;;4.35;;
28070;SDS011;15383;48.408;9.968;2024-02-21T06:53:54;14.32;;;5.05;;
28070;SDS011;15383;48.408;9.968;2024-02-21T06:56:20;8.10;;;4.25;;
28070;SDS011;15383;48.408;9.968;2024-02-21T06:58:46;8.73;;;4.30;;
28070;SDS011;15383;48.408;9.968;2024-02-21T07:01:11;5.85;;;3.60;;
28070;SDS011;15383;48.408;9.968;2024-02-21T07:03:37;10.52;;;5.15;;
28070;SDS011;15383;48.408;9.968;2024-02-21T07:06:03;7.45;;;4.45;;
28070;SDS011;15383;48.408;9.968;2024-02-21T07:08:28;8.15;;;4.20;;
28070;SDS011;15383;48.408;9.968;2024-02-21T07:10:54;8.52;;;4.38;;
28070;SDS011;15383;48.408;9.968;2024-02-21T07:13:20;9.77;;;4.20;;
28070;SDS011;15383;48.408;9.968;2024-02-21T07:15:46;9.02;;;4.28;;
28070;SDS011;15383;48.408;9.968;2024-02-21T07:18:12;10.65;;;4.43;;
28070;SDS011;15383;48.408;9.968;2024-02-21T07:20:38;9.88;;;4.93;;
28070;SDS011;15383;48.408;9.968;2024-02-21T07:23:06;12.55;;;4.90;;
28070;SDS011;15383;48.408;9.968;2024-02-21T07:25:32;7.88;;;4.00;;
28070;SDS011;15383;48.408;9.968;2024-02-21T07:27:57;10.02;;;4.63;;
28070;SDS011;15383;48.408;9.968;2024-02-21T07:30:23;12.05;;;4.93;;
28070;SDS011;15383;48.408;9.968;2024-02-21T07:32:49;11.93;;;4.55;;
28070;SDS011;15383;48.408;9.968;2024-02-21T07:35:15;10.93;;;5.05;;
28070;SDS011;15383;48.408;9.968;2024-02-21T07:37:41;8.18;;;4.47;;
28070;SDS011;15383;48.408;9.968;2024-02-21T07:40:14;6.70;;;4.72;;
28070;SDS011;15383;48.408;9.968;2024-02-21T07:42:41;12.88;;;5.30;;
28070;SDS011;15383;48.408;9.968;2024-02-21T07:45:07;9.57;;;4.60;;
28070;SDS011;15383;48.408;9.968;2024-02-21T07:47:33;9.98;;;4.68;;
28070;SDS011;15383;48.408;9.968;2024-02-21T07:49:59;12.82;;;5.30;;
28070;SDS011;15383;48.408;9.968;2024-02-21T07:52:25;12.40;;;5.13;;
28070;SDS011;15383;48.408;9.968;2024-02-21T07:54:51;10.43;;;5.03;;
28070;SDS011;15383;48.408;9.968;2024-02-21T07:57:16;12.85;;;4.78;;
28070;SDS011;15383;48.408;9.968;2024-02-21T07:59:42;10.27;;;4.80;;
28070;SDS011;15383;48.408;9.968;2024-02-21T08:02:08;11.77;;;4.43;;
28070;SDS011;15383;48.408;9.968;2024-02-21T08:04:34;10.40;;;4.47;;
28070;SDS011;15383;48.408;9.968;2024-02-21T08:06:59;9.32;;;5.03;;
28070;SDS011;15383;48.408;9.968;2024-02-21T08:09:27;10.50;;;5.18;;
28070;SDS011;15383;48.408;9.968;2024-02-21T08:11:53;11.68;;;4.18;;
28070;SDS011;15383;48.408;9.968;2024-02-21T08:14:19;8.25;;;4.40;;
28070;SDS011;15383;48.408;9.968;2024-02-21T08:16:45;12.82;;;5.20;;
28070;SDS011;15383;48.408;9.968;2024-02-21T08:19:10;16.17;;;4.75;;
28070;SDS011;15383;48.408;9.968;2024-02-21T08:21:36;24.35;;;5.55;;
28070;SDS011;15383;48.408;9.968;2024-02-21T08:24:02;8.98;;;4.75;;
28070;SDS011;15383;48.408;9.968;2024-02-21T08:26:27;8.30;;;4.93;;
28070;SDS011;15383;48.408;9.968;2024-02-21T08:28:55;16.73;;;5.07;;
28070;SDS011;15383;48.408;9.968;2024-02-21T08:31:24;10.77;;;4.35;;
28070;SDS011;15383;48.408;9.968;2024-02-21T08:33:56;11.15;;;4.95;;
28070;SDS011;15383;48.408;9.968;2024-02-21T08:36:27;8.40;;;4.63;;
28070;SDS011;15383;48.408;9.968;2024-02-21T08:38:53;14.40;;;5.05;;
28070;SDS011;15383;48.408;9.968;2024-02-21T08:41:18;16.90;;;5.70;;
28070;SDS011;15383;48.408;9.968;2024-02-21T08:43:44;10.48;;;4.63;;
28070;SDS011;15383;48.408;9.968;2024-02-21T08:46:10;8.15;;;4.65;;
28070;SDS011;15383;48.408;9.968;2024-02-21T08:48:35;10.10;;;4.63;;
28070;SDS011;15383;48.408;9.968;2024-02-21T08:51:01;10.55;;;4.70;;
28070;SDS011;15383;48.408;9.968;2024-02-21T08:53:26;12.10;;;5.10;;
28070;SDS011;15383;48.408;9.968;2024-02-21T08:55:52;9.27;;;4.57;;
28070;SDS011;15383;48.408;9.968;2024-02-21T08:58:17;8.57;;;4.70;;
28070;SDS011;15383;48.408;9.968;2024-02-21T09:00:43;12.73;;;5.32;;
28070;SDS011;15383;48.408;9.968;2024-02-21T09:03:08;14.38;;;5.20;;
28070;SDS011;15383;48.408;9.968;2024-02-21T09:05:34;10.10;;;5.75;;
28070;SDS011;15383;48.408;9.968;2024-02-21T09:08:00;7.85;;;4.45;;
28070;SDS011;15383;48.408;9.968;2024-02-21T09:10:25;10.65;;;4.90;;
28070;SDS011;15383;48.408;9.968;2024-02-21T09:12:51;14.90;;;5.10;;
28070;SDS011;15383;48.408;9.968;2024-02-21T09:15:16;11.93;;;4.93;;
28070;SDS011;15383;48.408;9.968;2024-02-21T09:17:42;12.20;;;5.10;;
28070;SDS011;15383;48.408;9.968;2024-02-21T09:20:08;13.23;;;4.70;;
28070;SDS011;15383;48.408;9.968;2024-02-21T09:22:36;9.68;;;3.83;;
28070;SDS011;15383;48.408;9.968;2024-02-21T09:25:04;9.38;;;4.03;;
28070;SDS011;15383;48.408;9.968;2024-02-21T09:27:30;8.68;;;4.50;;
28070;SDS011;15383;48.408;9.968;2024-02-21T09:29:56;14.45;;;4.43;;
28070;SDS011;15383;48.408;9.968;2024-02-21T09:32:22;12.60;;;4.70;;
28070;SDS011;15383;48.408;9.968;2024-02-21T09:34:47;7.80;;;4.25;;
28070;SDS011;15383;48.408;9.968;2024-02-21T09:37:13;10.98;;;3.83;;
28070;SDS011;15383;48.408;9.968;2024-02-21T09:39:38;7.63;;;4.15;;
28070;SDS011;15383;48.408;9.968;2024-02-21T09:42:05;8.05;;;3.83;;
28070;SDS011;15383;48.408;9.968;2024-02-21T09:44:33;7.90;;;3.72;;
28070;SDS011;15383;48.408;9.968;2024-02-21T09:47:03;8.57;;;4.45;;
28070;SDS011;15383;48.408;9.968;2024-02-21T09:49:32;10.07;;;4.40;;
28070;SDS011;15383;48.408;9.968;2024-02-21T09:52:02;8.45;;;3.90;;
28070;SDS011;15383;48.408;9.968;2024-02-21T09:54:29;7.82;;;4.40;;
28070;SDS011;15383;48.408;9.968;2024-02-21T09:56:57;8.50;;;4.05;;
28070;SDS011;15383;48.408;9.968;2024-02-21T09:59:23;12.15;;;4.90;;
28070;SDS011;15383;48.408;9.968;2024-02-21T10:01:50;15.10;;;4.60;;
28070;SDS011;15383;48.408;9.968;2024-02-21T10:04:16;9.23;;;4.22;;
28070;SDS011;15383;48.408;9.968;2024-02-21T10:06:43;12.10;;;4.13;;
28070;SDS011;15383;48.408;9.968;2024-02-21T10:09:19;9.98;;;4.50;;
28070;SDS011;15383;48.408;9.968;2024-02-21T10:11:46;7.35;;;3.80;;
28070;SDS011;15383;48.408;9.968;2024-02-21T10:14:11;5.95;;;3.85;;
28070;SDS011;15383;48.408;9.968;2024-02-21T10:16:37;7.30;;;3.85;;
28070;SDS011;15383;48.408;9.968;2024-02-21T10:19:02;6.97;;;3.65;;
28070;SDS011;15383;48.408;9.968;2024-02-21T10:21:28;14.90;;;4.25;;
28070;SDS011;15383;48.408;9.968;2024-02-21T10:23:54;8.38;;;4.03;;
28070;SDS011;15383;48.408;9.968;2024-02-21T10:26:20;9.07;;;3.90;;
28070;SDS011;15383;48.408;9.968;2024-02-21T10:28:49;9.70;;;3.55;;
28070;SDS011;15383;48.408;9.968;2024-02-21T10:36:23;6.03;;;3.20;;
28070;SDS011;15383;48.408;9.968;2024-02-21T10:38:49;8.43;;;3.58;;
28070;SDS011;15383;48.408;9.968;2024-02-21T10:41:16;6.43;;;2.85;;
28070;SDS011;15383;48.408;9.968;2024-02-21T10:43:46;12.85;;;3.42;;
28070;SDS011;15383;48.408;9.968;2024-02-21T10:46:19;3.90;;;2.78;;
28070;SDS011;15383;48.408;9.968;2024-02-21T10:48:46;4.75;;;3.40;;
28070;SDS011;15383;48.408;9.968;2024-02-21T10:51:16;3.33;;;2.15;;
28070;SDS011;15383;48.408;9.968;2024-02-21T10:56:38;9.63;;;2.50;;
28070;SDS011;15383;48.408;9.968;2024-02-21T10:59:05;7.40;;;2.83;;
28070;SDS011;15383;48.408;9.968;2024-02-21T11:01:32;3.22;;;2.25;;
28070;SDS011;15383;48.408;9.968;2024-02-21T11:04:10;5.93;;;2.65;;
28070;SDS011;15383;48.408;9.968;2024-02-21T11:06:40;5.93;;;2.55;;
28070;SDS011;15383;48.408;9.968;2024-02-21T11:09:07;4.53;;;2.58;;
28070;SDS011;15383;48.408;9.968;2024-02-21T11:11:39;8.65;;;2.72;;
28070;SDS011;15383;48.408;9.968;2024-02-21T11:14:07;5.50;;;2.72;;
28070;SDS011;15383;48.408;9.968;2024-02-21T11:16:40;5.65;;;2.67;;
28070;SDS011;15383;48.408;9.968;2024-02-21T11:19:20;5.45;;;2.13;;
28070;SDS011;15383;48.408;9.968;2024-02-21T11:21:47;6.45;;;2.50;;
28070;SDS011;15383;48.408;9.968;2024-02-21T11:24:13;4.90;;;2.25;;
28070;SDS011;15383;48.408;9.968;2024-02-21T11:26:40;9.50;;;2.20;;
28070;SDS011;15383;48.408;9.968;2024-02-21T11:29:08;7.07;;;2.67;;
28070;SDS011;15383;48.408;9.968;2024-02-21T11:31:42;5.93;;;2.90;;
28070;SDS011;15383;48.408;9.968;2024-02-21T11:34:09;8.23;;;2.17;;
28070;SDS011;15383;48.408;9.968;2024-02-21T11:36:35;4.80;;;2.53;;
28070;SDS011;15383;48.408;9.968;2024-02-21T11:39:10;4.22;;;2.35;;
28070;SDS011;15383;48.408;9.968;2024-02-21T11:41:36;4.65;;;2.50;;
28070;SDS011;15383;48.408;9.968;2024-02-21T11:44:01;3.42;;;2.15;;
28070;SDS011;15383;48.408;9.968;2024-02-21T11:46:28;5.55;;;2.92;;
28070;SDS011;15383;48.408;9.968;2024-02-21T11:48:54;4.70;;;2.40;;
28070;SDS011;15383;48.408;9.968;2024-02-21T11:51:26;5.45;;;2.30;;
28070;SDS011;15383;48.408;9.968;2024-02-21T11:53:52;4.82;;;2.22;;
28070;SDS011;15383;48.408;9.968;2024-02-21T11:56:18;6.22;;;2.53;;
28070;SDS011;15383;48.408;9.968;2024-02-21T11:58:45;10.43;;;2.78;;
28070;SDS011;15383;48.408;9.968;2024-02-21T12:01:12;6.90;;;2.58;;
28070;SDS011;15383;48.408;9.968;2024-02-21T12:03:38;3.65;;;2.40;;
28070;SDS011;15383;48.408;9.968;2024-02-21T12:06:06;7.18;;;2.65;;
28070;SDS011;15383;48.408;9.968;2024-02-21T12:08:44;4.57;;;2.45;;
28070;SDS011;15383;48.408;9.968;2024-02-21T12:11:22;4.80;;;2.30;;
28070;SDS011;15383;48.408;9.968;2024-02-21T12:16:27;7.50;;;2.95;;
28070;SDS011;15383;48.408;9.968;2024-02-21T12:18:54;5.50;;;2.83;;
28070;SDS011;15383;48.408;9.968;2024-02-21T12:21:23;5.20;;;3.20;;
28070;SDS011;15383;48.408;9.968;2024-02-21T12:23:49;3.78;;;2.65;;
28070;SDS011;15383;48.408;9.968;2024-02-21T12:26:14;9.70;;;2.42;;
28070;SDS011;15383;48.408;9.968;2024-02-21T12:28:40;5.38;;;2.47;;
28070;SDS011;15383;48.408;9.968;2024-02-21T12:31:05;9.32;;;3.20;;
28070;SDS011;15383;48.408;9.968;2024-02-21T12:33:31;5.82;;;2.75;;
28070;SDS011;15383;48.408;9.968;2024-02-21T12:35:58;7.57;;;3.08;;
28070;SDS011;15383;48.408;9.968;2024-02-21T12:38:23;7.80;;;2.80;;
28070;SDS011;15383;48.408;9.968;2024-02-21T12:40:49;5.00;;;2.65;;
28070;SDS011;15383;48.408;9.968;2024-02-21T12:43:14;5.00;;;2.35;;
28070;SDS011;15383;48.408;9.968;2024-02-21T12:45:40;5.32;;;2.38;;
28070;SDS011;15383;48.408;9.968;2024-02-21T12:48:06;2.50;;;2.00;;
28070;SDS011;15383;48.408;9.968;2024-02-21T12:50:31;2.08;;;1.83;;
28070;SDS011;15383;48.408;9.968;2024-02-21T12:52:57;6.03;;;2.30;;
28070;SDS011;15383;48.408;9.968;2024-02-21T12:55:23;2.47;;;1.83;;
28070;SDS011;15383;48.408;9.968;2024-02-21T12:57:49;4.45;;;1.80;;
28070;SDS011;15383;48.408;9.968;2024-02-21T13:00:14;5.25;;;1.80;;
28070;SDS011;15383;48.408;9.968;2024-02-21T13:02:40;6.43;;;2.28;;
28070;SDS011;15383;48.408;9.968;2024-02-21T13:05:06;2.13;;;1.65;;
28070;SDS011;15383;48.408;9.968;2024-02-21T13:07:32;8.13;;;1.85;;
28070;SDS011;15383;48.408;9.968;2024-02-21T13:09:58;2.95;;;1.80;;
28070;SDS011;15383;48.408;9.968;2024-02-21T13:12:24;2.17;;;1.70;;
28070;SDS011;15383;48.408;9.968;2024-02-21T13:14:51;5.03;;;1.58;;
28070;SDS011;15383;48.408;9.968;2024-02-21T13:17:16;7.03;;;2.10;;
28070;SDS011;15383;48.408;9.968;2024-02-21T13:19:42;5.20;;;2.20;;
28070;SDS011;15383;48.408;9.968;2024-02-21T13:22:08;2.20;;;1.90;;
28070;SDS011;15383;48.408;9.968;2024-02-21T13:24:34;3.17;;;1.80;;
28070;SDS011;15383;48.408;9.968;2024-02-21T13:26:59;2.83;;;1.60;;
28070;SDS011;15383;48.408;9.968;2024-02-21T13:29:25;2.17;;;1.65;;
28070;SDS011;15383;48.408;9.968;2024-02-21T13:31:50;2.75;;;1.70;;
28070;SDS011;15383;48.408;9.968;2024-02-21T13:34:16;4.72;;;1.80;;
28070;SDS011;15383;48.408;9.968;2024-02-21T13:36:42;3.13;;;1.92;;
28070;SDS011;15383;48.408;9.968;2024-02-21T13:39:08;5.20;;;1.98;;
28070;SDS011;15383;48.408;9.968;2024-02-21T13:41:36;3.47;;;1.60;;
28070;SDS011;15383;48.408;9.968;2024-02-21T13:44:01;2.38;;;1.60;;
28070;SDS011;15383;48.408;9.968;2024-02-21T13:46:28;3.83;;;1.63;;
28070;SDS011;15383;48.408;9.968;2024-02-21T13:48:54;2.00;;;1.80;;
28070;SDS011;15383;48.408;9.968;2024-02-21T13:51:29;3.63;;;2.05;;
28070;SDS011;15383;48.408;9.968;2024-02-21T13:53:55;3.42;;;1.90;;
28070;SDS011;15383;48.408;9.968;2024-02-21T13:56:20;6.63;;;1.63;;
28070;SDS011;15383;48.408;9.968;2024-02-21T13:58:46;2.70;;;1.60;;
28070;SDS011;15383;48.408;9.968;2024-02-21T14:01:11;3.20;;;1.70;;
28070;SDS011;15383;48.408;9.968;2024-02-21T14:03:37;2.03;;;1.60;;
28070;SDS011;15383;48.408;9.968;2024-02-21T14:06:02;2.55;;;1.75;;
28070;SDS011;15383;48.408;9.968;2024-02-21T14:08:28;2.35;;;1.90;;
28070;SDS011;15383;48.408;9.968;2024-02-21T14:10:54;3.83;;;1.50;;
28070;SDS011;15383;48.408;9.968;2024-02-21T14:13:20;4.75;;;1.70;;
28070;SDS011;15383;48.408;9.968;2024-02-21T14:15:46;4.68;;;1.92;;
28070;SDS011;15383;48.408;9.968;2024-02-21T14:18:13;2.33;;;1.58;;
28070;SDS011;15383;48.408;9.968;2024-02-21T14:20:39;4.03;;;2.05;;
28070;SDS011;15383;48.408;9.968;2024-02-21T14:23:04;2.30;;;1.45;;
28070;SDS011;15383;48.408;9.968;2024-02-21T14:25:30;7.20;;;1.85;;
28070;SDS011;15383;48.408;9.968;2024-02-21T14:27:55;1.77;;;1.45;;
28070;SDS011;15383;48.408;9.968;2024-02-21T14:30:21;4.15;;;2.05;;
28070;SDS011;15383;48.408;9.968;2024-02-21T14:32:46;2.40;;;1.58;;
28070;SDS011;15383;48.408;9.968;2024-02-21T14:35:12;5.28;;;2.05;;
28070;SDS011;15383;48.408;9.968;2024-02-21T14:37:37;3.30;;;2.13;;
28070;SDS011;15383;48.408;9.968;2024-02-21T14:40:03;6.75;;;1.92;;
28070;SDS011;15383;48.408;9.968;2024-02-21T14:42:29;4.93;;;2.08;;
28070;SDS011;15383;48.408;9.968;2024-02-21T14:44:54;7.78;;;2.30;;
28070;SDS011;15383;48.408;9.968;2024-02-21T14:47:28;5.03;;;2.00;;
28070;SDS011;15383;48.408;9.968;2024-02-21T14:49:55;3.85;;;1.77;;
28070;SDS011;15383;48.408;9.968;2024-02-21T14:52:21;4.43;;;2.22;;
28070;SDS011;15383;48.408;9.968;2024-02-21T14:54:46;3.38;;;2.38;;
28070;SDS011;15383;48.408;9.968;2024-02-21T14:57:16;9.18;;;2.10;;